createdAt,value
2022-08-04T00:02:13.516Z,6.23
2022-08-04T00:04:45.314Z,6.63
2022-08-04T00:07:42.517Z,6.43
2022-08-04T00:10:10.095Z,5.93
2022-08-04T00:12:42.281Z,8.00
2022-08-04T00:15:15.059Z,7.63
2022-08-04T00:17:54.277Z,7.03
2022-08-04T00:20:23.226Z,6.60
2022-08-04T00:22:53.009Z,7.25
2022-08-04T00:25:20.044Z,8.40
2022-08-04T00:27:47.657Z,7.97
2022-08-04T00:30:14.682Z,9.17
2022-08-04T00:32:42.880Z,5.50
2022-08-04T00:35:13.175Z,6.78
2022-08-04T00:37:40.884Z,9.50
2022-08-04T00:40:20.235Z,9.80
2022-08-04T00:43:02.909Z,8.13
2022-08-04T00:46:16.343Z,8.70
2022-08-04T00:48:47.286Z,10.60
2022-08-04T00:51:32.895Z,8.32
2022-08-04T00:54:11.933Z,9.03
2022-08-04T00:57:02.876Z,7.00
2022-08-04T00:59:42.783Z,11.33
2022-08-04T01:02:29.664Z,8.60
2022-08-04T01:05:15.148Z,8.97
2022-08-04T01:08:07.164Z,9.30
2022-08-04T01:11:15.432Z,10.33
2022-08-04T01:14:05.241Z,9.60
2022-08-04T01:16:39.863Z,11.00
2022-08-04T01:19:34.922Z,8.67
2022-08-04T01:22:07.606Z,10.97
2022-08-04T01:24:51.610Z,9.23
2022-08-04T01:27:47.655Z,9.48
2022-08-04T01:30:14.888Z,6.63
2022-08-04T01:32:53.389Z,7.60
2022-08-04T01:35:47.709Z,8.10
2022-08-04T01:38:24.127Z,7.87
2022-08-04T01:40:57.701Z,8.40
2022-08-04T01:43:27.646Z,10.73
2022-08-04T01:45:58.930Z,6.93
2022-08-04T01:48:27.515Z,6.17
2022-08-04T01:50:57.794Z,6.93
2022-08-04T01:53:31.397Z,10.20
2022-08-04T01:55:58.683Z,8.03
2022-08-04T01:58:30.830Z,7.73
2022-08-04T02:01:10.495Z,6.80
2022-08-04T02:04:20.592Z,8.03
2022-08-04T02:06:59.887Z,7.80
2022-08-04T02:09:54.530Z,7.30
2022-08-04T02:12:27.175Z,6.43
2022-08-04T02:15:03.011Z,10.17
2022-08-04T02:17:45.308Z,9.93
2022-08-04T02:20:39.401Z,7.50
2022-08-04T02:23:09.901Z,6.50
2022-08-04T02:26:00.713Z,5.77
2022-08-04T02:28:35.205Z,5.37
2022-08-04T02:31:08.137Z,5.63
2022-08-04T02:33:38.506Z,8.00
2022-08-04T02:36:10.063Z,5.07
2022-08-04T02:38:58.923Z,6.63
2022-08-04T02:41:28.115Z,7.57
2022-08-04T02:44:03.141Z,5.00
2022-08-04T02:46:31.590Z,6.47
2022-08-04T02:49:04.168Z,7.10
2022-08-04T02:51:36.200Z,9.73
2022-08-04T02:54:04.941Z,8.20
2022-08-04T02:56:34.892Z,6.37
2022-08-04T02:59:14.888Z,8.27
2022-08-04T03:01:57.917Z,7.57
2022-08-04T03:05:02.542Z,7.97
2022-08-04T03:07:41.416Z,10.33
2022-08-04T03:10:21.465Z,8.43
2022-08-04T03:13:11.833Z,9.50
2022-08-04T03:16:02.487Z,8.80
2022-08-04T03:19:34.145Z,8.93
2022-08-04T03:22:28.320Z,8.33
2022-08-04T03:25:15.674Z,6.73
2022-08-04T03:28:06.763Z,9.83
2022-08-04T03:30:49.098Z,7.27
2022-08-04T03:33:41.326Z,7.70
2022-08-04T03:36:34.644Z,8.20
2022-08-04T03:39:34.707Z,7.53
2022-08-04T03:42:34.399Z,12.57
2022-08-04T03:45:25.933Z,9.53
2022-08-04T03:48:13.758Z,8.70
2022-08-04T03:51:09.514Z,8.87
2022-08-04T03:54:28.888Z,8.87
2022-08-04T03:57:25.952Z,12.67
2022-08-04T04:00:02.274Z,7.27
2022-08-04T04:02:43.336Z,8.33
2022-08-04T04:05:29.883Z,6.83
2022-08-04T04:08:28.015Z,8.87
2022-08-04T04:11:18.332Z,7.33
2022-08-04T04:13:45.332Z,13.77
2022-08-04T04:16:22.531Z,7.27
2022-08-04T04:18:57.003Z,7.77
2022-08-04T04:22:03.306Z,7.83
2022-08-04T04:25:07.006Z,8.17
2022-08-04T04:27:48.661Z,10.10
2022-08-04T04:30:42.697Z,8.07
2022-08-04T04:33:48.535Z,8.70
2022-08-04T04:36:28.060Z,6.97
2022-08-04T04:39:20.566Z,8.17
2022-08-04T04:42:07.245Z,9.40
2022-08-04T04:44:56.223Z,9.97
2022-08-04T04:48:08.374Z,8.70
2022-08-04T04:50:46.820Z,8.63
2022-08-04T04:53:36.024Z,6.97
2022-08-04T04:56:19.368Z,7.63
2022-08-04T04:58:48.750Z,11.20
2022-08-04T05:01:30.268Z,10.50
2022-08-04T05:04:26.051Z,7.90
2022-08-04T05:07:11.136Z,8.87
2022-08-04T05:09:38.562Z,9.07
2022-08-04T05:14:31.469Z,8.60
2022-08-04T05:15:16.713Z,8.17
2022-08-04T05:17:51.363Z,12.23
2022-08-04T05:20:29.145Z,9.27
2022-08-04T05:23:09.458Z,8.77
2022-08-04T05:25:58.489Z,6.53
2022-08-04T05:28:41.895Z,9.10
2022-08-04T05:31:20.550Z,9.67
2022-08-04T05:34:03.305Z,9.60
2022-08-04T05:36:52.413Z,8.57
2022-08-04T05:39:43.322Z,9.17
2022-08-04T05:42:14.797Z,10.17
2022-08-04T05:44:45.347Z,6.97
2022-08-04T05:47:16.689Z,13.80
2022-08-04T05:50:01.443Z,9.80
2022-08-04T05:52:36.853Z,10.33
2022-08-04T05:55:04.988Z,9.23
2022-08-04T05:57:33.012Z,10.93
2022-08-04T06:00:19.515Z,9.83
2022-08-04T06:02:54.559Z,10.70
2022-08-04T06:05:23.384Z,10.87
2022-08-04T06:08:12.789Z,10.30
2022-08-04T06:10:43.393Z,12.13
2022-08-04T06:13:48.283Z,11.53
2022-08-04T06:16:08.389Z,10.23
2022-08-04T06:20:03.462Z,10.83
2022-08-04T06:21:39.642Z,7.70
2022-08-04T06:24:26.343Z,10.43
2022-08-04T06:26:55.051Z,11.70
2022-08-04T06:29:41.317Z,8.60
2022-08-04T06:32:35.465Z,14.03
2022-08-04T06:35:07.790Z,8.90
2022-08-04T06:37:42.562Z,11.63
2022-08-04T06:40:31.650Z,13.93
2022-08-04T06:43:14.634Z,9.27
2022-08-04T06:45:44.199Z,15.40
2022-08-04T06:48:18.789Z,10.67
2022-08-04T06:51:27.839Z,10.20
2022-08-04T06:53:36.747Z,11.57
2022-08-04T06:56:04.506Z,9.67
2022-08-04T06:58:34.070Z,11.07
2022-08-04T07:01:06.745Z,9.97
2022-08-04T07:03:34.199Z,10.97
2022-08-04T07:06:06.047Z,9.00
2022-08-04T07:08:41.290Z,7.87
2022-08-04T07:11:09.251Z,7.93
2022-08-04T07:13:38.285Z,10.63
2022-08-04T07:16:16.083Z,6.90
2022-08-04T07:18:46.093Z,7.07
2022-08-04T07:21:23.489Z,7.83
2022-08-04T07:23:51.515Z,7.87
2022-08-04T07:26:26.846Z,6.83
2022-08-04T07:28:53.766Z,8.63
2022-08-04T07:31:33.142Z,7.90
2022-08-04T07:34:20.657Z,6.60
2022-08-04T07:36:51.284Z,6.90
2022-08-04T07:39:27.620Z,7.70
2022-08-04T07:42:01.588Z,7.83
2022-08-04T07:44:31.269Z,6.43
2022-08-04T07:46:58.913Z,6.77
2022-08-04T07:49:52.185Z,4.83
2022-08-04T07:52:16.944Z,7.20
2022-08-04T07:54:44.986Z,6.47
2022-08-04T07:57:19.233Z,6.03
2022-08-04T07:59:50.395Z,7.47
2022-08-04T08:02:20.605Z,8.67
2022-08-04T08:04:48.383Z,5.30
2022-08-04T08:07:15.557Z,3.97
2022-08-04T08:09:42.478Z,7.97
2022-08-04T08:12:37.485Z,11.23
2022-08-04T08:14:57.109Z,6.78
2022-08-04T08:17:24.172Z,6.05
2022-08-04T08:19:51.407Z,7.90
2022-08-04T08:22:18.264Z,4.60
2022-08-04T08:24:45.194Z,6.30
2022-08-04T08:27:12.072Z,6.38
2022-08-04T08:29:40.269Z,6.30
2022-08-04T08:32:10.014Z,6.90
2022-08-04T08:34:38.754Z,8.00
2022-08-04T08:37:53.063Z,5.78
2022-08-04T08:40:41.069Z,7.97
2022-08-04T08:44:05.057Z,6.28
2022-08-04T08:46:48.594Z,2.65
2022-08-04T08:50:03.143Z,4.57
2022-08-04T08:53:01.261Z,10.73
2022-08-04T08:55:57.026Z,5.72
2022-08-04T08:58:35.679Z,8.00
2022-08-04T09:01:27.318Z,8.02
2022-08-04T09:04:35.441Z,3.53
2022-08-04T09:07:39.401Z,5.80
2022-08-04T09:10:19.078Z,5.35
2022-08-04T09:12:52.888Z,5.10
2022-08-04T09:15:28.694Z,6.03
2022-08-04T09:18:23.958Z,5.95
2022-08-04T09:21:04.287Z,3.65
2022-08-04T09:23:54.879Z,5.75
2022-08-04T09:26:31.464Z,5.40
2022-08-04T09:29:08.921Z,6.22
2022-08-04T09:32:07.189Z,3.88
2022-08-04T09:35:15.690Z,8.73
2022-08-04T09:37:46.741Z,7.75
2022-08-04T09:40:57.079Z,6.10
2022-08-04T09:43:59.508Z,5.43
2022-08-04T09:46:47.549Z,5.60
2022-08-04T09:49:19.590Z,5.93
2022-08-04T09:51:57.613Z,6.95
2022-08-04T09:54:38.005Z,6.90
2022-08-04T09:57:14.998Z,5.85
2022-08-04T10:00:05.953Z,7.40
2022-08-04T10:02:40.860Z,3.28
2022-08-04T10:05:14.291Z,3.67
2022-08-04T10:08:15.176Z,5.63
2022-08-04T10:11:28.166Z,7.25
2022-08-04T10:14:05.822Z,6.85
2022-08-04T10:16:58.760Z,4.70
2022-08-04T10:19:32.540Z,7.70
2022-08-04T10:22:28.931Z,3.80
2022-08-04T10:25:05.025Z,4.53
2022-08-04T10:27:57.542Z,6.00
2022-08-04T10:30:26.117Z,7.15
2022-08-04T10:33:19.635Z,5.83
2022-08-04T10:35:53.894Z,5.90
2022-08-04T10:38:42.442Z,4.43
2022-08-04T10:41:40.260Z,3.50
2022-08-04T10:44:44.121Z,5.90
2022-08-04T10:47:22.299Z,4.20
2022-08-04T10:49:56.005Z,4.30
2022-08-04T10:52:38.283Z,7.60
2022-08-04T10:55:21.621Z,5.10
2022-08-04T10:57:55.890Z,3.40
2022-08-04T11:00:25.780Z,5.60
2022-08-04T11:03:23.532Z,6.53
2022-08-04T11:06:04.777Z,5.97
2022-08-04T11:08:34.738Z,4.70
2022-08-04T11:11:12.896Z,4.57
2022-08-04T11:14:10.541Z,4.60
2022-08-04T11:17:07.974Z,3.17
2022-08-04T11:19:44.892Z,2.23
2022-08-04T11:22:26.247Z,3.87
2022-08-04T11:24:56.743Z,3.47
2022-08-04T11:27:36.157Z,5.43
2022-08-04T11:30:09.151Z,4.87
2022-08-04T11:33:06.969Z,2.73
2022-08-04T11:35:58.919Z,3.63
2022-08-04T11:38:51.962Z,2.80
2022-08-04T11:41:25.129Z,3.50
2022-08-04T11:44:03.182Z,3.70
2022-08-04T11:46:41.008Z,4.50
2022-08-04T11:49:24.709Z,3.93
2022-08-04T11:51:52.467Z,5.43
2022-08-04T11:54:20.501Z,2.57
2022-08-04T11:56:47.477Z,3.13
2022-08-04T11:59:14.888Z,5.35
2022-08-04T12:01:47.413Z,4.10
2022-08-04T12:04:26.941Z,3.90
2022-08-04T12:07:15.039Z,3.93
2022-08-04T12:09:56.394Z,5.82
2022-08-04T12:12:39.137Z,4.37
2022-08-04T12:15:27.693Z,4.03
2022-08-04T12:18:09.197Z,4.50
2022-08-04T12:20:43.355Z,3.77
2022-08-04T12:23:27.037Z,4.25
2022-08-04T12:26:00.379Z,4.67
2022-08-04T12:28:52.506Z,2.85
2022-08-04T12:31:57.302Z,4.77
2022-08-04T12:34:33.816Z,7.30
2022-08-04T12:37:07.383Z,4.30
2022-08-04T12:40:29.328Z,2.63
2022-08-04T12:42:36.007Z,6.70
2022-08-04T12:45:10.728Z,3.90
2022-08-04T12:47:39.328Z,3.73
2022-08-04T12:50:08.012Z,6.03
2022-08-04T12:53:00.940Z,3.70
2022-08-04T12:55:30.704Z,5.13
2022-08-04T12:57:58.575Z,2.93
2022-08-04T13:00:47.738Z,2.90
2022-08-04T13:03:16.634Z,2.63
2022-08-04T13:05:45.006Z,3.10
2022-08-04T13:08:13.356Z,5.30
2022-08-04T13:10:42.826Z,2.73
2022-08-04T13:13:25.810Z,2.23
2022-08-04T13:15:57.247Z,3.80
2022-08-04T13:18:30.110Z,3.35
2022-08-04T13:21:23.046Z,6.25
2022-08-04T13:24:22.719Z,4.20
2022-08-04T13:27:10.738Z,1.88
2022-08-04T13:29:59.734Z,2.97
2022-08-04T13:32:29.878Z,3.65
2022-08-04T13:35:00.172Z,4.75
2022-08-04T13:37:34.935Z,3.35
2022-08-04T13:40:05.746Z,2.30
2022-08-04T13:42:35.782Z,3.83
2022-08-04T13:45:07.141Z,5.30
2022-08-04T13:47:38.110Z,6.53
2022-08-04T13:50:23.805Z,4.15
2022-08-04T13:52:56.872Z,2.30
2022-08-04T13:55:28.445Z,3.42
2022-08-04T13:58:02.415Z,3.28
2022-08-04T14:00:44.103Z,3.03
2022-08-04T14:03:22.818Z,3.33
2022-08-04T14:06:12.267Z,5.15
2022-08-04T14:09:03.552Z,3.78
2022-08-04T14:12:06.542Z,3.15
2022-08-04T14:14:30.264Z,2.67
2022-08-04T14:17:06.873Z,2.38
2022-08-04T14:20:00.048Z,3.08
2022-08-04T14:22:26.901Z,2.78
2022-08-04T14:25:01.119Z,2.50
2022-08-04T14:27:53.145Z,2.35
2022-08-04T14:30:38.995Z,3.78
2022-08-04T14:34:01.504Z,1.77
2022-08-04T14:36:04.125Z,2.78
2022-08-04T14:38:48.696Z,3.20
2022-08-04T14:41:18.021Z,3.47
2022-08-04T14:43:50.698Z,2.63
2022-08-04T14:46:18.299Z,3.58
2022-08-04T14:49:10.090Z,1.88
2022-08-04T14:51:43.082Z,2.05
2022-08-04T14:54:17.326Z,2.85
2022-08-04T14:56:53.633Z,2.17
2022-08-04T14:59:21.580Z,4.43
2022-08-04T15:02:00.280Z,3.95
2022-08-04T15:04:29.415Z,4.47
2022-08-04T15:06:56.728Z,3.35
2022-08-04T15:09:24.021Z,2.53
2022-08-04T15:11:51.106Z,3.33
2022-08-04T15:14:36.324Z,2.05
2022-08-04T15:17:12.111Z,2.58
2022-08-04T15:19:55.486Z,5.13
2022-08-04T15:22:23.188Z,3.30
2022-08-04T15:24:52.128Z,5.72
2022-08-04T15:27:26.675Z,4.43
2022-08-04T15:30:00.199Z,2.17
2022-08-04T15:32:34.161Z,5.75
2022-08-04T15:35:09.183Z,4.10
2022-08-04T15:37:53.925Z,4.37
2022-08-04T15:40:37.288Z,2.67
2022-08-04T15:43:26.687Z,4.10
2022-08-04T15:46:41.110Z,6.43
2022-08-04T15:48:47.331Z,3.83
2022-08-04T15:51:30.382Z,2.35
2022-08-04T15:54:02.199Z,5.85
2022-08-04T15:56:31.078Z,3.23
2022-08-04T15:58:58.437Z,3.77
2022-08-04T16:01:27.989Z,5.30
2022-08-04T16:03:59.733Z,4.70
2022-08-04T16:06:29.741Z,3.70
2022-08-04T16:09:05.050Z,4.07
2022-08-04T16:11:40.121Z,2.40
2022-08-04T16:14:10.937Z,2.17
2022-08-04T16:16:41.039Z,1.50
2022-08-04T16:19:18.845Z,4.72
2022-08-04T16:21:52.932Z,2.08
2022-08-04T16:24:31.510Z,2.78
2022-08-04T16:27:00.604Z,4.85
2022-08-04T16:29:51.724Z,2.63
2022-08-04T16:32:23.928Z,2.38
2022-08-04T16:35:03.379Z,1.90
2022-08-04T16:37:38.974Z,4.28
2022-08-04T16:40:36.452Z,4.22
2022-08-04T16:43:06.345Z,2.75
2022-08-04T16:45:40.241Z,2.73
2022-08-04T16:48:08.329Z,4.23
2022-08-04T16:51:06.581Z,3.30
2022-08-04T16:54:02.870Z,3.33
2022-08-04T16:56:33.457Z,4.75
2022-08-04T16:59:10.137Z,4.82
2022-08-04T17:01:38.574Z,4.97
2022-08-04T17:04:06.691Z,4.00
2022-08-04T17:06:42.068Z,2.63
2022-08-04T17:09:13.007Z,5.50
2022-08-04T17:11:41.309Z,3.42
2022-08-04T17:14:08.261Z,5.85
2022-08-04T17:16:37.939Z,3.20
2022-08-04T17:19:06.756Z,3.65
2022-08-04T17:21:48.048Z,2.80
2022-08-04T17:24:17.846Z,1.67
2022-08-04T17:26:51.782Z,2.97
2022-08-04T17:29:42.076Z,3.45
2022-08-04T17:32:16.964Z,4.88
2022-08-04T17:34:51.216Z,1.65
2022-08-04T17:37:38.776Z,2.90
2022-08-04T17:40:18.654Z,3.73
2022-08-04T17:44:03.767Z,5.90
2022-08-04T17:46:15.178Z,1.40
2022-08-04T17:49:00.587Z,5.17
2022-08-04T17:52:19.205Z,4.57
2022-08-04T17:55:02.803Z,3.10
2022-08-04T17:57:30.310Z,4.60
2022-08-04T18:00:00.313Z,3.23
2022-08-04T18:02:32.247Z,1.60
2022-08-04T18:05:07.491Z,4.07
2022-08-04T18:08:40.153Z,2.27
2022-08-04T18:10:51.560Z,2.37
2022-08-04T18:13:27.487Z,2.60
2022-08-04T18:16:22.716Z,2.37
2022-08-04T18:19:12.212Z,2.50
2022-08-04T18:21:46.797Z,2.73
2022-08-04T18:24:33.829Z,2.17
2022-08-04T18:27:06.257Z,5.00
2022-08-04T18:29:39.248Z,4.23
2022-08-04T18:32:08.959Z,1.50
2022-08-04T18:34:40.678Z,2.80
2022-08-04T18:37:32.116Z,2.50
2022-08-04T18:40:17.290Z,3.73
2022-08-04T18:42:44.937Z,2.90
2022-08-04T18:45:13.194Z,2.87
2022-08-04T18:47:58.640Z,1.70
2022-08-04T18:51:01.064Z,2.27
2022-08-04T18:53:13.143Z,3.33
2022-08-04T18:55:56.552Z,2.40
2022-08-04T18:58:27.167Z,4.63
2022-08-04T19:00:56.066Z,2.77
2022-08-04T19:03:27.166Z,3.73
2022-08-04T19:05:59.845Z,2.00
2022-08-04T19:08:32.810Z,3.40
2022-08-04T19:11:37.371Z,2.90
2022-08-04T19:13:57.804Z,2.70
2022-08-04T19:16:27.619Z,3.13
2022-08-04T19:18:56.576Z,4.00
2022-08-04T19:21:59.387Z,2.83
2022-08-04T19:24:31.997Z,1.87
2022-08-04T19:26:59.495Z,1.97
2022-08-04T19:29:37.820Z,1.67
2022-08-04T19:32:14.435Z,1.73
2022-08-04T19:34:47.239Z,2.77
2022-08-04T19:37:56.771Z,1.70
2022-08-04T19:40:04.812Z,2.60
2022-08-04T19:42:32.155Z,2.40
2022-08-04T19:44:59.407Z,3.60
2022-08-04T19:48:15.959Z,3.33
2022-08-04T19:50:13.897Z,2.20
2022-08-04T19:52:51.478Z,1.83
2022-08-04T19:55:22.369Z,1.50
2022-08-04T19:57:50.437Z,2.80
2022-08-04T20:00:33.439Z,2.07
2022-08-04T20:03:03.138Z,2.60
2022-08-04T20:05:52.719Z,5.50
2022-08-04T20:08:19.556Z,2.30
2022-08-04T20:10:51.777Z,4.60
2022-08-04T20:13:22.488Z,4.23
2022-08-04T20:15:57.694Z,2.97
2022-08-04T20:21:19.472Z,4.83
2022-08-04T20:23:52.649Z,1.97
2022-08-04T20:26:20.326Z,6.90
2022-08-04T20:28:51.794Z,3.43
2022-08-04T20:31:19.883Z,4.70
2022-08-04T20:33:49.387Z,4.47
2022-08-04T20:36:22.789Z,4.10
2022-08-04T20:38:54.647Z,2.83
2022-08-04T20:41:22.495Z,3.10
2022-08-04T20:43:49.744Z,1.93
2022-08-04T20:49:06.541Z,3.30
2022-08-04T20:51:39.959Z,3.13
2022-08-04T20:54:16.738Z,3.43
2022-08-04T20:56:50.525Z,1.87
2022-08-04T20:59:19.699Z,3.43
2022-08-04T21:01:49.530Z,3.10
2022-08-04T21:04:35.897Z,6.80
2022-08-04T21:07:08.525Z,4.00
2022-08-04T21:09:49.873Z,1.57
2022-08-04T21:12:27.305Z,3.73
2022-08-04T21:14:57.347Z,4.53
2022-08-04T21:17:56.686Z,2.73
2022-08-04T21:20:13.875Z,5.33
2022-08-04T21:22:40.974Z,4.07
2022-08-04T21:25:16.258Z,3.20
2022-08-04T21:27:44.226Z,1.90
2022-08-04T21:30:25.060Z,2.53
2022-08-04T21:32:55.166Z,3.33
2022-08-04T21:35:36.919Z,5.23
2022-08-04T21:38:16.633Z,3.80
2022-08-04T21:41:10.944Z,5.27
2022-08-04T21:43:42.957Z,3.33
2022-08-04T21:46:11.426Z,6.17
2022-08-04T21:48:42.463Z,3.87
2022-08-04T21:51:55.817Z,3.53
2022-08-04T21:54:09.885Z,4.70
2022-08-04T21:56:42.236Z,5.13
2022-08-04T21:59:24.148Z,2.53
2022-08-04T22:01:58.361Z,3.57
2022-08-04T22:04:27.813Z,4.70
2022-08-04T22:06:54.881Z,4.33
2022-08-04T22:09:22.301Z,4.03
2022-08-04T22:11:51.511Z,3.37
2022-08-04T22:14:29.330Z,3.40
2022-08-04T22:17:02.670Z,4.47
2022-08-04T22:19:40.252Z,3.77
2022-08-04T22:22:25.064Z,4.70
2022-08-04T22:24:55.013Z,3.03
2022-08-04T22:27:40.513Z,4.70
2022-08-04T22:30:16.818Z,3.10
2022-08-04T22:32:46.609Z,5.70
2022-08-04T22:35:35.756Z,4.30
2022-08-04T22:38:06.316Z,2.90
2022-08-04T22:40:47.788Z,5.80
2022-08-04T22:43:31.725Z,4.67
2022-08-04T22:46:04.019Z,3.43
2022-08-04T22:48:36.990Z,4.13
2022-08-04T22:51:05.680Z,3.80
2022-08-04T22:53:34.625Z,3.27
2022-08-04T22:56:10.055Z,3.53
2022-08-04T22:58:51.036Z,4.00
2022-08-04T23:01:18.825Z,5.07
2022-08-04T23:03:54.949Z,3.50
2022-08-04T23:06:24.288Z,3.90
2022-08-04T23:08:53.621Z,3.00
2022-08-04T23:11:20.710Z,3.80
2022-08-04T23:13:49.141Z,4.27
2022-08-04T23:16:16.906Z,6.10
2022-08-04T23:18:45.281Z,3.90
2022-08-04T23:21:15.347Z,3.97
2022-08-04T23:23:55.732Z,5.73
2022-08-04T23:26:30.313Z,7.40
2022-08-04T23:28:57.441Z,7.87
2022-08-04T23:31:25.181Z,5.50
2022-08-04T23:34:08.439Z,4.50
2022-08-04T23:36:35.962Z,8.47
2022-08-04T23:39:07.849Z,6.17
2022-08-04T23:41:54.561Z,6.13
2022-08-04T23:44:25.621Z,6.90
2022-08-04T23:47:03.485Z,3.27
2022-08-04T23:49:43.347Z,6.20
2022-08-04T23:52:28.004Z,6.47
2022-08-04T23:54:58.563Z,5.97
2022-08-04T23:58:02.368Z,4.23
